createdAt,value
2022-10-16T00:00:07.594Z,93.69
2022-10-16T00:01:07.582Z,93.5
2022-10-16T00:02:07.769Z,93.98
2022-10-16T00:03:07.849Z,93.88
2022-10-16T00:04:07.857Z,93.79
2022-10-16T00:05:07.543Z,94.07
2022-10-16T00:06:07.543Z,94.65
2022-10-16T00:07:07.826Z,95.12
2022-10-16T00:08:07.541Z,96.08
2022-10-16T00:09:07.846Z,96.27
2022-10-16T00:10:07.797Z,97.04
2022-10-16T00:11:07.516Z,97.8
2022-10-16T00:12:07.549Z,97.8
2022-10-16T00:13:07.823Z,99.24
2022-10-16T00:14:07.749Z,99.62
2022-10-16T00:15:07.712Z,99.52
2022-10-16T00:16:07.456Z,99.14
2022-10-16T00:17:07.701Z,99.52
2022-10-16T00:18:07.429Z,99.52
2022-10-16T00:19:07.428Z,99.62
2022-10-16T00:20:07.730Z,99.52
2022-10-16T00:21:07.670Z,99.24
2022-10-16T00:22:07.399Z,99.14
2022-10-16T00:23:07.392Z,98.57
2022-10-16T00:24:07.386Z,98.47
2022-10-16T00:25:07.631Z,98.47
2022-10-16T00:26:07.621Z,97.8
2022-10-16T00:27:07.610Z,98.47
2022-10-16T00:28:07.612Z,98.57
2022-10-16T00:29:07.469Z,98.38
2022-10-16T00:30:07.388Z,99.14
2022-10-16T00:31:07.582Z,99.24
2022-10-16T00:32:07.319Z,99.33
2022-10-16T00:33:07.303Z,99.14
2022-10-16T00:34:07.564Z,99.43
2022-10-16T00:35:07.543Z,98.95
2022-10-16T00:36:07.595Z,99.62
2022-10-16T00:37:07.529Z,99.52
2022-10-16T00:38:07.526Z,99.14
2022-10-16T00:39:07.268Z,99.62
2022-10-16T00:40:07.508Z,99.04
2022-10-16T00:41:07.237Z,99.81
2022-10-16T00:42:07.241Z,99.71
2022-10-16T00:43:07.490Z,99.99
2022-10-16T00:44:07.222Z,99.71
2022-10-16T00:45:07.461Z,99.43
2022-10-16T00:46:07.462Z,99.81
2022-10-16T00:47:07.448Z,99.99
2022-10-16T00:49:07.438Z,99.99
2022-10-16T00:50:07.424Z,99.99
2022-10-16T00:51:07.410Z,99.9
2022-10-16T00:52:07.463Z,99.9
2022-10-16T00:53:07.408Z,99.99
2022-10-16T00:54:07.134Z,99.99
2022-10-16T00:55:07.377Z,99.99
2022-10-16T00:56:07.381Z,99.99
2022-10-16T00:57:07.336Z,99.99
2022-10-16T00:58:07.355Z,99.99
2022-10-16T00:59:07.102Z,99.99
2022-10-16T01:00:07.346Z,99.99
2022-10-16T01:01:07.513Z,99.99
2022-10-16T01:02:07.067Z,99.99
2022-10-16T01:03:07.055Z,99.99
2022-10-16T01:04:07.304Z,99.99
2022-10-16T01:05:07.292Z,99.99
2022-10-16T01:06:07.286Z,99.99
2022-10-16T01:07:07.288Z,99.99
2022-10-16T01:08:07.328Z,99.99
2022-10-16T01:09:07.003Z,99.99
2022-10-16T01:10:07.267Z,99.99
2022-10-16T01:11:07.243Z,99.99
2022-10-16T01:12:07.235Z,99.99
2022-10-16T01:13:07.246Z,99.71
2022-10-16T01:14:06.963Z,99.24
2022-10-16T01:15:06.961Z,99.09
2022-10-16T01:16:07.204Z,99.24
2022-10-16T01:17:07.194Z,99.33
2022-10-16T01:18:07.192Z,99.33
2022-10-16T01:19:07.177Z,99.33
2022-10-16T01:20:07.036Z,99.24
2022-10-16T01:21:06.912Z,99.99
2022-10-16T01:22:07.151Z,99.99
2022-10-16T01:23:06.886Z,99.99
2022-10-16T01:24:07.182Z,99.99
2022-10-16T01:25:07.140Z,99.99
2022-10-16T01:26:06.860Z,99.99
2022-10-16T01:27:07.107Z,99.99
2022-10-16T01:28:06.850Z,99.99
2022-10-16T01:29:07.199Z,99.71
2022-10-16T01:30:07.091Z,99.04
2022-10-16T01:31:06.820Z,99.04
2022-10-16T01:32:07.067Z,99.24
2022-10-16T01:33:07.068Z,98.75
2022-10-16T01:34:07.058Z,98.75
2022-10-16T01:35:07.046Z,98.66
2022-10-16T01:36:07.032Z,99.24
2022-10-16T01:37:07.022Z,99.14
2022-10-16T01:38:06.758Z,99.04
2022-10-16T01:39:07.014Z,99.04
2022-10-16T01:40:07.044Z,99.04
2022-10-16T01:41:06.738Z,99.62
2022-10-16T01:42:06.727Z,99.43
2022-10-16T01:43:06.731Z,99.9
2022-10-16T01:44:06.713Z,99.71
2022-10-16T01:45:06.961Z,99.71
2022-10-16T01:46:06.693Z,99.81
2022-10-16T01:47:06.958Z,99.99
2022-10-16T01:48:06.680Z,99.99
2022-10-16T01:49:06.928Z,99.99
2022-10-16T01:50:06.910Z,99.99
2022-10-16T01:51:06.908Z,99.99
2022-10-16T01:52:06.651Z,99.99
2022-10-16T01:53:06.894Z,99.99
2022-10-16T01:54:06.878Z,99.99
2022-10-16T01:55:06.877Z,99.99
2022-10-16T01:56:06.916Z,99.99
2022-10-16T01:57:06.863Z,99.99
2022-10-16T01:58:06.590Z,99.99
2022-10-16T01:59:06.841Z,99.99
2022-10-16T02:00:06.831Z,99.99
2022-10-16T02:01:07.066Z,99.99
2022-10-16T02:02:06.561Z,99.99
2022-10-16T02:03:06.549Z,99.99
2022-10-16T02:04:06.541Z,99.99
2022-10-16T02:05:06.788Z,99.99
2022-10-16T02:06:06.525Z,99.99
2022-10-16T02:07:06.516Z,99.99
2022-10-16T02:08:08.228Z,99.99
2022-10-16T02:09:06.770Z,99.99
2022-10-16T02:10:06.750Z,99.99
2022-10-16T02:11:06.491Z,99.99
2022-10-16T02:12:06.782Z,99.99
2022-10-16T02:13:06.475Z,99.99
2022-10-16T02:14:06.462Z,99.99
2022-10-16T02:15:06.713Z,99.99
2022-10-16T02:16:06.440Z,99.99
2022-10-16T02:17:06.439Z,99.99
2022-10-16T02:18:06.689Z,99.99
2022-10-16T02:19:06.670Z,99.99
2022-10-16T02:20:06.777Z,99.99
2022-10-16T02:21:06.548Z,99.99
2022-10-16T02:22:06.663Z,99.99
2022-10-16T02:23:06.637Z,99.99
2022-10-16T02:24:06.399Z,99.99
2022-10-16T02:25:06.623Z,99.99
2022-10-16T02:26:06.362Z,99.99
2022-10-16T02:27:06.607Z,99.99
2022-10-16T02:28:06.643Z,99.99
2022-10-16T02:29:06.336Z,99.99
2022-10-16T02:30:06.586Z,99.99
2022-10-16T02:31:06.568Z,99.99
2022-10-16T02:32:06.569Z,99.99
2022-10-16T02:33:06.616Z,99.99
2022-10-16T02:34:06.289Z,99.99
2022-10-16T02:35:06.279Z,99.99
2022-10-16T02:36:06.538Z,99.99
2022-10-16T02:37:06.523Z,99.99
2022-10-16T02:38:06.381Z,99.99
2022-10-16T02:39:06.500Z,99.99
2022-10-16T02:40:06.507Z,99.99
2022-10-16T02:41:06.237Z,99.99
2022-10-16T02:42:06.486Z,99.99
2022-10-16T02:43:06.211Z,99.99
2022-10-16T02:44:06.555Z,99.99
2022-10-16T02:45:06.461Z,99.99
2022-10-16T02:46:06.192Z,99.99
2022-10-16T02:47:06.364Z,99.99
2022-10-16T02:48:06.859Z,99.99
2022-10-16T02:49:06.856Z,99.99
2022-10-16T02:50:06.850Z,99.95
2022-10-16T02:51:06.582Z,99.28
2022-10-16T02:52:06.576Z,99.09
2022-10-16T02:53:06.817Z,99.66
2022-10-16T02:54:06.819Z,99.09
2022-10-16T02:55:06.804Z,99.38
2022-10-16T02:56:06.870Z,99.19
2022-10-16T02:57:06.538Z,99.38
2022-10-16T02:58:06.779Z,99.28
2022-10-16T02:59:06.518Z,99.09
2022-10-16T03:00:06.806Z,99.48
2022-10-16T03:01:06.649Z,99.66
2022-10-16T03:02:06.483Z,99.33
2022-10-16T03:03:06.479Z,99.99
2022-10-16T03:04:06.726Z,99.57
2022-10-16T03:05:06.464Z,99.28
2022-10-16T03:06:06.446Z,99.48
2022-10-16T03:07:06.444Z,98.71
2022-10-16T03:08:06.713Z,99.14
2022-10-16T03:09:06.703Z,98.99
2022-10-16T03:10:06.915Z,99.24
2022-10-16T03:11:06.907Z,99.04
2022-10-16T03:12:06.895Z,98.8
2022-10-16T03:13:06.886Z,99.04
2022-10-16T03:14:06.877Z,99.43
2022-10-16T03:15:06.879Z,99.14
2022-10-16T03:16:06.919Z,99.43
2022-10-16T03:17:06.597Z,99.38
2022-10-16T03:18:06.843Z,99.24
2022-10-16T03:19:06.587Z,99.24
2022-10-16T03:20:06.589Z,99.52
2022-10-16T03:21:06.562Z,99.99
2022-10-16T03:22:06.810Z,99.99
2022-10-16T03:23:06.544Z,99.99
2022-10-16T03:24:06.791Z,99.52
2022-10-16T03:25:06.546Z,99.33
2022-10-16T03:26:06.777Z,99.24
2022-10-16T03:27:06.774Z,99.33
2022-10-16T03:28:06.499Z,99.14
2022-10-16T03:29:06.972Z,99.33
2022-10-16T03:30:06.750Z,98.52
2022-10-16T03:31:06.762Z,97.94
2022-10-16T03:32:06.772Z,96.89
2022-10-16T03:49:30.641Z,92.97
2022-10-16T03:50:30.317Z,92.02
2022-10-16T03:51:30.558Z,91.74
2022-10-16T03:52:30.295Z,91.06
2022-10-16T03:53:30.286Z,90.78
2022-10-16T03:54:30.262Z,90.88
2022-10-16T03:55:30.261Z,90.2
2022-10-16T03:56:30.498Z,90.39
2022-10-16T03:57:31.142Z,90.11
2022-10-16T03:58:30.483Z,90.11
2022-10-16T03:59:30.469Z,89.53
2022-10-16T04:00:30.205Z,89.06
2022-10-16T04:01:30.257Z,88.87
2022-10-16T04:02:30.185Z,88.68
2022-10-16T04:03:30.174Z,88.2
2022-10-16T04:04:30.416Z,88.39
2022-10-16T04:05:30.460Z,88.2
2022-10-16T04:06:30.403Z,88.39
2022-10-16T04:07:30.781Z,88.39
2022-10-16T04:08:30.123Z,88.48
2022-10-16T04:09:30.115Z,88.87
2022-10-16T04:10:30.105Z,88.87
2022-10-16T04:11:30.099Z,88.68
2022-10-16T04:12:30.339Z,88.2
2022-10-16T04:13:30.083Z,88.96
2022-10-16T04:14:30.320Z,89.25
2022-10-16T04:15:30.057Z,90.01
2022-10-16T04:16:30.306Z,89.34
2022-10-16T04:17:30.768Z,90.2
2022-10-16T04:18:30.284Z,90.49
2022-10-16T04:19:30.036Z,91.16
2022-10-16T04:20:30.266Z,91.54
2022-10-16T04:21:30.314Z,92.3
2022-10-16T04:22:29.990Z,93.55
2022-10-16T04:23:30.242Z,94.51
2022-10-16T04:24:30.237Z,95.56
2022-10-16T04:25:29.969Z,95.94
2022-10-16T04:26:30.209Z,96.32
2022-10-16T04:27:30.886Z,97.18
2022-10-16T04:28:30.333Z,97.66
2022-10-16T04:29:30.189Z,98.04
2022-10-16T04:30:29.924Z,98.52
2022-10-16T04:31:30.171Z,99.28
2022-10-16T04:32:29.909Z,99.48
2022-10-16T04:33:29.896Z,99.19
2022-10-16T04:34:30.145Z,99.57
2022-10-16T04:35:30.140Z,99.66
2022-10-16T04:36:31.556Z,99.48
2022-10-16T04:37:30.724Z,99.99
2022-10-16T04:38:30.114Z,99.99
2022-10-16T04:39:30.101Z,99.99
2022-10-16T04:40:30.095Z,99.99
2022-10-16T04:41:30.751Z,99.99
2022-10-16T04:42:31.003Z,99.99
2022-10-16T04:43:30.736Z,99.99
2022-10-16T04:44:30.725Z,99.99
2022-10-16T04:45:30.727Z,99.99
2022-10-16T04:46:30.709Z,99.99
2022-10-16T04:47:31.459Z,99.99
2022-10-16T04:48:30.946Z,99.99
2022-10-16T04:49:30.680Z,99.99
2022-10-16T04:50:30.679Z,99.99
2022-10-16T04:51:30.665Z,99.99
2022-10-16T04:52:31.022Z,99.99
2022-10-16T04:53:30.955Z,99.99
2022-10-16T04:54:30.899Z,99.99
2022-10-16T04:55:30.629Z,99.99
2022-10-16T04:56:30.878Z,99.99
2022-10-16T04:57:31.303Z,99.99
2022-10-16T04:58:30.609Z,99.99
2022-10-16T04:59:30.810Z,99.99
2022-10-16T05:00:31.065Z,99.99
2022-10-16T05:01:30.791Z,99.99
2022-10-16T05:02:30.867Z,99.99
2022-10-16T05:04:30.771Z,99.99
2022-10-16T05:05:31.017Z,99.57
2022-10-16T05:06:30.750Z,99.57
2022-10-16T05:07:31.347Z,98.9
2022-10-16T05:08:30.990Z,99.28
2022-10-16T05:09:31.033Z,98.61
2022-10-16T05:10:30.973Z,98.52
2022-10-16T05:11:30.960Z,97.75
2022-10-16T05:12:30.696Z,97.94
2022-10-16T05:13:30.688Z,96.8
2022-10-16T05:14:30.684Z,96.51
2022-10-16T05:15:30.672Z,96.32
2022-10-16T05:16:30.917Z,96.8
2022-10-16T05:17:31.292Z,96.03
2022-10-16T05:18:30.651Z,95.75
2022-10-16T05:19:31.660Z,96.13
2022-10-16T05:20:30.629Z,95.46
2022-10-16T05:21:30.617Z,95.61
2022-10-16T05:22:30.869Z,95.22
2022-10-16T05:23:30.862Z,94.98
2022-10-16T05:24:30.591Z,94.93
2022-10-16T05:25:30.894Z,95.32
2022-10-16T05:26:30.939Z,95.12
2022-10-16T05:27:31.405Z,94.55
2022-10-16T05:28:30.932Z,94.65
2022-10-16T05:29:30.805Z,94.36
2022-10-16T05:30:30.543Z,94.26
2022-10-16T05:31:30.540Z,94.65
2022-10-16T05:32:30.784Z,94.07
2022-10-16T05:33:30.775Z,93.69
2022-10-16T05:34:30.760Z,93.69
2022-10-16T05:35:30.760Z,93.74
2022-10-16T05:36:30.769Z,94.02
2022-10-16T05:37:31.002Z,93.69
2022-10-16T05:38:30.727Z,93.4
2022-10-16T05:39:30.724Z,93.02
2022-10-16T05:40:30.456Z,92.74
2022-10-16T05:41:30.758Z,93.21
2022-10-16T05:42:30.437Z,92.88
2022-10-16T05:43:30.691Z,92.35
2022-10-16T05:44:30.490Z,92.64
2022-10-16T05:45:30.673Z,92.45
2022-10-16T05:46:30.405Z,92.25
2022-10-16T05:47:31.316Z,92.07
2022-10-16T05:48:30.389Z,91.97
2022-10-16T05:49:30.381Z,91.88
2022-10-16T05:50:30.369Z,91.68
2022-10-16T05:51:30.360Z,91.68
2022-10-16T05:52:30.361Z,91.59
2022-10-16T05:53:30.672Z,91.88
2022-10-16T05:54:30.590Z,91.97
2022-10-16T05:55:30.589Z,91.49
2022-10-16T05:56:30.578Z,91.78
2022-10-16T05:57:30.955Z,91.88
2022-10-16T05:58:30.557Z,92.07
2022-10-16T05:59:30.555Z,91.78
2022-10-16T06:00:30.859Z,91.78
2022-10-16T06:01:30.814Z,91.88
2022-10-16T06:02:30.981Z,91.88
2022-10-16T06:03:30.972Z,91.78
2022-10-16T06:04:30.709Z,91.97
2022-10-16T06:05:30.956Z,91.78
2022-10-16T06:06:30.942Z,91.97
2022-10-16T06:07:31.483Z,92.16
2022-10-16T06:08:30.927Z,92.25
2022-10-16T06:09:31.205Z,91.88
2022-10-16T06:10:30.704Z,92.35
2022-10-16T06:11:30.903Z,92.3
2022-10-16T06:12:30.899Z,92.4
2022-10-16T06:13:30.937Z,92.3
2022-10-16T06:14:30.621Z,92.49
2022-10-16T06:15:30.617Z,92.69
2022-10-16T06:16:30.633Z,92.88
2022-10-16T06:17:31.193Z,92.88
2022-10-16T06:18:30.588Z,93.26
2022-10-16T06:19:30.587Z,93.16
2022-10-16T06:20:30.782Z,93.26
2022-10-16T06:21:30.834Z,93.35
2022-10-16T06:22:30.555Z,93.07
2022-10-16T06:23:30.804Z,93.35
2022-10-16T06:24:30.807Z,93.93
2022-10-16T06:25:30.534Z,94.12
2022-10-16T06:26:30.785Z,94.41
2022-10-16T06:27:30.857Z,94.7
2022-10-16T06:28:30.658Z,95.17
2022-10-16T06:29:30.815Z,95.56
2022-10-16T06:30:30.752Z,96.51
2022-10-16T06:31:30.999Z,96.7
2022-10-16T06:32:30.737Z,96.8
2022-10-16T06:33:30.476Z,96.7
2022-10-16T06:34:30.734Z,96.99
2022-10-16T06:35:30.460Z,96.99
2022-10-16T06:36:30.701Z,97.18
2022-10-16T06:37:31.121Z,97.08
2022-10-16T06:38:30.692Z,97.18
2022-10-16T06:39:30.686Z,97.56
2022-10-16T06:40:30.710Z,98.14
2022-10-16T06:41:30.682Z,98.81
2022-10-16T06:42:30.934Z,99.19
2022-10-16T06:43:30.654Z,99.29
2022-10-16T06:44:30.646Z,99.91
2022-10-16T06:45:30.681Z,99.72
2022-10-16T06:46:30.632Z,99.67
2022-10-16T06:47:30.622Z,99.99
2022-10-16T06:48:30.359Z,99.99
2022-10-16T06:49:30.602Z,99.99
2022-10-16T06:50:30.598Z,99.99
2022-10-16T06:51:30.333Z,99.99
2022-10-16T06:52:31.072Z,99.99
2022-10-16T06:53:35.825Z,99.99
2022-10-16T06:54:30.304Z,99.99
2022-10-16T06:55:30.553Z,99.99
2022-10-16T06:56:30.548Z,99.99
2022-10-16T06:57:30.283Z,99.99
2022-10-16T06:58:30.275Z,99.99
2022-10-16T06:59:30.272Z,99.99
2022-10-16T07:00:30.553Z,99.99
2022-10-16T07:01:30.559Z,99.99
2022-10-16T07:02:31.153Z,99.99
2022-10-16T07:03:30.491Z,99.99
2022-10-16T07:04:30.487Z,99.99
2022-10-16T07:05:30.482Z,99.99
2022-10-16T07:06:30.473Z,99.99
2022-10-16T07:07:30.458Z,99.99
2022-10-16T07:08:30.457Z,99.99
2022-10-16T07:10:30.467Z,99.99
2022-10-16T07:11:30.173Z,99.99
2022-10-16T07:12:30.915Z,99.99
2022-10-16T07:13:30.159Z,99.99
2022-10-16T07:14:30.409Z,99.99
2022-10-16T07:15:30.147Z,99.99
2022-10-16T07:16:30.415Z,99.99
2022-10-16T07:17:30.507Z,99.99
2022-10-16T07:19:34.638Z,99.99
2022-10-16T07:20:30.116Z,99.99
2022-10-16T07:21:30.183Z,99.99
2022-10-16T07:22:30.505Z,99.99
2022-10-16T07:23:30.094Z,99.99
2022-10-16T07:24:30.346Z,99.99
2022-10-16T07:25:30.076Z,99.99
2022-10-16T07:26:30.340Z,99.99
2022-10-16T07:27:30.126Z,99.99
2022-10-16T07:28:30.149Z,99.99
2022-10-16T07:29:30.315Z,99.99
2022-10-16T07:30:30.297Z,99.99
2022-10-16T07:31:30.324Z,99.99
2022-10-16T07:32:30.688Z,99.99
2022-10-16T07:33:30.336Z,99.99
2022-10-16T07:34:30.011Z,99.99
2022-10-16T07:35:30.265Z,99.99
2022-10-16T07:36:30.044Z,99.99
2022-10-16T07:37:30.738Z,99.99
2022-10-16T07:38:30.239Z,99.99
2022-10-16T07:39:29.979Z,99.99
2022-10-16T07:40:30.227Z,99.99
2022-10-16T07:41:30.224Z,99.99
2022-10-16T07:42:30.213Z,99.99
2022-10-16T07:43:30.219Z,99.99
2022-10-16T07:44:30.201Z,99.99
2022-10-16T07:45:29.937Z,99.99
2022-10-16T07:46:30.193Z,99.99
2022-10-16T07:47:30.516Z,99.99
2022-10-16T07:48:29.926Z,99.99
2022-10-16T07:49:30.245Z,99.99
2022-10-16T07:50:29.908Z,99.99
2022-10-16T07:51:30.164Z,99.99
2022-10-16T07:52:30.158Z,99.99
2022-10-16T07:53:29.890Z,99.99
2022-10-16T07:54:29.875Z,99.99
2022-10-16T07:55:29.871Z,99.99
2022-10-16T07:56:29.874Z,99.99
2022-10-16T07:57:30.765Z,99.99
2022-10-16T07:58:30.107Z,99.99
2022-10-16T07:59:29.844Z,99.99
2022-10-16T08:00:29.841Z,99.99
2022-10-16T08:01:30.244Z,99.99
2022-10-16T08:02:29.823Z,99.99
2022-10-16T08:03:29.816Z,99.99
2022-10-16T08:04:30.065Z,99.99
2022-10-16T08:05:30.121Z,99.99
2022-10-16T08:06:30.677Z,99.99
2022-10-16T08:07:30.260Z,99.99
2022-10-16T08:08:30.052Z,99.99
2022-10-16T08:09:30.043Z,99.99
2022-10-16T08:10:30.027Z,99.99
2022-10-16T08:11:30.019Z,99.99
2022-10-16T08:12:29.757Z,99.99
2022-10-16T08:13:30.148Z,99.99
2022-10-16T08:14:30.012Z,99.99
2022-10-16T08:15:29.993Z,99.99
2022-10-16T08:16:29.997Z,99.99
2022-10-16T08:17:30.792Z,99.99
2022-10-16T08:18:29.725Z,99.99
2022-10-16T08:19:29.715Z,99.99
2022-10-16T08:20:29.706Z,99.99
2022-10-16T08:21:30.011Z,99.99
2022-10-16T08:22:29.958Z,99.99
2022-10-16T08:23:29.717Z,99.99
2022-10-16T08:24:29.683Z,99.99
2022-10-16T08:25:29.676Z,99.99
2022-10-16T08:26:29.989Z,99.99
2022-10-16T08:27:30.413Z,99.99
2022-10-16T08:28:29.799Z,99.99
2022-10-16T08:29:29.911Z,99.99
2022-10-16T08:30:29.905Z,99.99
2022-10-16T08:31:29.963Z,99.99
2022-10-16T08:32:30.272Z,99.99
2022-10-16T08:33:29.631Z,99.99
2022-10-16T08:34:29.880Z,99.99
2022-10-16T08:35:29.615Z,99.99
2022-10-16T08:36:29.608Z,99.99
2022-10-16T08:37:29.912Z,99.99
2022-10-16T08:38:29.603Z,99.99
2022-10-16T08:39:29.844Z,99.99
2022-10-16T08:40:29.879Z,99.99
2022-10-16T08:41:29.838Z,99.99
2022-10-16T08:42:30.479Z,99.99
2022-10-16T08:43:29.822Z,99.99
2022-10-16T08:44:29.819Z,99.99
2022-10-16T08:45:29.557Z,99.99
2022-10-16T08:46:29.554Z,99.99
2022-10-16T08:47:29.544Z,99.99
2022-10-16T08:48:29.800Z,99.99
2022-10-16T08:49:29.569Z,99.99
2022-10-16T08:50:29.787Z,99.99
2022-10-16T08:51:29.784Z,99.99
2022-10-16T08:52:30.444Z,99.99
2022-10-16T08:53:29.818Z,99.99
2022-10-16T08:54:29.765Z,99.99
2022-10-16T08:55:29.506Z,99.99
2022-10-16T08:56:29.498Z,99.99
2022-10-16T08:57:29.486Z,99.99
2022-10-16T08:58:29.484Z,99.99
2022-10-16T08:59:29.479Z,99.99
2022-10-16T09:00:29.928Z,99.99
2022-10-16T09:01:29.831Z,99.99
2022-10-16T09:02:30.377Z,99.99
2022-10-16T09:03:29.461Z,99.99
2022-10-16T09:04:29.449Z,99.99
2022-10-16T09:05:29.445Z,99.99
2022-10-16T09:06:29.705Z,99.99
2022-10-16T09:07:29.699Z,99.99
2022-10-16T09:08:29.430Z,99.99
2022-10-16T09:09:29.741Z,99.99
2022-10-16T09:10:29.675Z,99.99
2022-10-16T09:11:29.422Z,99.99
2022-10-16T09:12:30.132Z,99.99
2022-10-16T09:13:29.408Z,99.99
2022-10-16T09:14:29.661Z,99.99
2022-10-16T09:15:30.572Z,99.99
2022-10-16T09:16:30.558Z,99.99
2022-10-16T09:17:30.941Z,99.99
2022-10-16T09:18:34.947Z,99.99
2022-10-16T09:19:30.291Z,99.99
2022-10-16T09:20:30.539Z,99.99
2022-10-16T09:21:30.536Z,99.99
2022-10-16T09:22:30.274Z,99.99
2022-10-16T09:23:30.533Z,99.99
2022-10-16T09:24:31.847Z,99.99
2022-10-16T09:25:30.574Z,99.99
2022-10-16T09:26:30.266Z,99.99
2022-10-16T09:27:30.736Z,99.99
2022-10-16T09:28:30.402Z,99.99
2022-10-16T09:29:30.237Z,99.99
2022-10-16T09:30:30.499Z,99.99
2022-10-16T09:31:30.494Z,99.99
2022-10-16T09:32:30.222Z,99.99
2022-10-16T09:33:30.485Z,99.99
2022-10-16T09:34:30.215Z,99.99
2022-10-16T09:36:30.209Z,99.99
2022-10-16T09:37:31.170Z,99.99
2022-10-16T09:38:30.459Z,99.99
2022-10-16T09:39:30.196Z,99.99
2022-10-16T09:40:30.189Z,99.99
2022-10-16T09:41:30.487Z,99.99
2022-10-16T09:42:30.178Z,99.99
2022-10-16T09:43:30.178Z,99.99
2022-10-16T09:44:30.553Z,99.99
2022-10-16T09:45:30.423Z,99.99
2022-10-16T09:46:30.423Z,99.99
2022-10-16T09:47:30.865Z,99.99
2022-10-16T09:48:30.161Z,99.99
2022-10-16T09:49:30.144Z,99.99
2022-10-16T09:50:30.147Z,99.99
2022-10-16T09:51:30.404Z,99.99
2022-10-16T09:52:30.390Z,99.99
2022-10-16T09:53:30.131Z,99.99
2022-10-16T09:54:30.382Z,99.99
2022-10-16T09:55:30.116Z,99.99
2022-10-16T09:56:30.375Z,99.99
2022-10-16T09:57:31.034Z,99.99
2022-10-16T09:58:30.107Z,99.99
2022-10-16T09:59:30.388Z,99.99
2022-10-16T10:00:30.100Z,99.99
2022-10-16T10:01:30.352Z,99.99
2022-10-16T10:02:30.088Z,99.99
2022-10-16T10:03:30.348Z,99.99
2022-10-16T10:04:30.342Z,99.99
2022-10-16T10:05:30.075Z,99.99
2022-10-16T10:06:30.073Z,99.99
2022-10-16T10:07:30.800Z,99.99
2022-10-16T10:08:30.067Z,99.99
2022-10-16T10:09:30.055Z,99.99
2022-10-16T10:10:30.050Z,99.99
2022-10-16T10:11:30.048Z,99.99
2022-10-16T10:12:31.211Z,99.99
2022-10-16T10:13:30.339Z,99.99
2022-10-16T10:14:30.040Z,99.99
2022-10-16T10:15:30.042Z,99.99
2022-10-16T10:16:30.284Z,99.99
2022-10-16T10:17:30.277Z,99.99
2022-10-16T10:18:30.024Z,99.99
2022-10-16T10:19:32.696Z,99.99
2022-10-16T10:20:30.016Z,99.99
2022-10-16T10:21:30.266Z,99.99
2022-10-16T10:22:30.865Z,99.99
2022-10-16T10:23:30.273Z,99.3
2022-10-16T10:24:30.275Z,98.92
2022-10-16T10:25:30.246Z,98.72
2022-10-16T10:26:29.987Z,97.28
2022-10-16T10:27:29.983Z,96.12
2022-10-16T10:28:30.379Z,93.82
2022-10-16T10:29:30.280Z,94.87
2022-10-16T10:30:29.979Z,95.26
2022-10-16T10:31:30.241Z,94.97
2022-10-16T10:32:30.812Z,95.84
2022-10-16T10:33:30.216Z,92.91
2022-10-16T10:34:29.960Z,92.81
2022-10-16T10:35:29.965Z,94.83
2022-10-16T10:36:30.213Z,95.79
2022-10-16T10:37:30.201Z,97.04
2022-10-16T10:38:30.205Z,94.06
2022-10-16T10:39:30.207Z,96.66
2022-10-16T10:40:30.193Z,97.14
2022-10-16T10:41:33.770Z,96.42
2022-10-16T10:42:30.479Z,96.12
2022-10-16T10:43:30.258Z,93.43
2022-10-16T10:44:29.991Z,93.43
2022-10-16T10:45:30.297Z,92.76
2022-10-16T10:46:30.243Z,92.85
2022-10-16T10:47:29.987Z,93.82
2022-10-16T10:48:30.980Z,93.43
2022-10-16T10:49:30.231Z,91.7
2022-10-16T10:50:29.976Z,91.8
2022-10-16T10:51:29.967Z,91.31
2022-10-16T10:52:30.461Z,91.94
2022-10-16T10:53:29.965Z,93
2022-10-16T10:54:29.958Z,93.19
2022-10-16T10:55:29.960Z,93.38
2022-10-16T10:56:29.952Z,94.35
2022-10-16T10:57:30.031Z,94.35
2022-10-16T10:58:35.072Z,94.06
2022-10-16T10:59:30.196Z,94.54
2022-10-16T11:00:30.193Z,94.06
2022-10-16T11:01:30.334Z,95.31
2022-10-16T11:02:30.654Z,95.5
2022-10-16T11:03:30.189Z,96.56
2022-10-16T11:04:29.920Z,96.27
2022-10-16T11:05:30.179Z,96.75
2022-10-16T11:06:30.220Z,96.27
2022-10-16T11:07:30.591Z,96.56
2022-10-16T11:08:29.906Z,96.27
2022-10-16T11:09:29.910Z,95.4
2022-10-16T11:10:30.158Z,97.04
2022-10-16T11:11:30.159Z,98.87
2022-10-16T11:12:29.893Z,99.06
2022-10-16T11:13:30.146Z,98.87
2022-10-16T11:14:30.148Z,97.33
2022-10-16T11:15:29.883Z,95.98
2022-10-16T11:16:29.880Z,95.74
2022-10-16T11:17:30.701Z,93.29
2022-10-16T11:18:30.125Z,92.18
2022-10-16T11:19:30.161Z,91.5
2022-10-16T11:20:29.867Z,90.34
2022-10-16T11:21:33.305Z,90.3
2022-10-16T11:22:30.124Z,89.72
2022-10-16T11:23:30.119Z,89.76
2022-10-16T11:24:30.109Z,88.27
2022-10-16T11:25:30.105Z,86.15
2022-10-16T11:26:30.102Z,85.77
2022-10-16T11:27:30.425Z,85.47
2022-10-16T11:28:34.076Z,83.64
2022-10-16T11:29:29.845Z,83.07
2022-10-16T11:30:29.843Z,83.36
2022-10-16T11:31:30.090Z,83.64
2022-10-16T11:32:29.835Z,84.61
2022-10-16T11:33:30.130Z,84.03
2022-10-16T11:34:30.796Z,84.28
2022-10-16T11:35:30.082Z,83.99
2022-10-16T11:36:29.842Z,84.56
2022-10-16T11:37:30.492Z,84.86
2022-10-16T11:38:29.819Z,85.43
2022-10-16T11:39:30.068Z,84.95
2022-10-16T11:40:30.075Z,84.28
2022-10-16T11:41:29.807Z,84.28
2022-10-16T11:42:30.061Z,84.12
2022-10-16T11:43:29.804Z,83.84
2022-10-16T11:44:30.063Z,83.51
2022-10-16T11:45:29.802Z,83.89
2022-10-16T11:46:29.796Z,83.51
2022-10-16T11:48:00.371Z,84.38
2022-10-16T11:48:29.797Z,84.38
2022-10-16T11:49:30.100Z,84.56
2022-10-16T11:50:30.046Z,84.66
2022-10-16T11:51:29.787Z,84.38
2022-10-16T11:52:30.037Z,84.38
2022-10-16T11:53:29.779Z,83.8
2022-10-16T11:54:30.032Z,83.51
2022-10-16T11:55:30.069Z,83.8
2022-10-16T11:56:30.036Z,83.7
2022-10-16T11:57:30.311Z,84.18
2022-10-16T11:58:30.024Z,84.76
2022-10-16T11:59:30.021Z,85.14
2022-10-16T12:00:29.759Z,84.18
2022-10-16T12:01:29.762Z,84.38
2022-10-16T12:02:30.409Z,84.53
2022-10-16T12:03:29.903Z,84.72
2022-10-16T12:04:30.012Z,85.49
2022-10-16T12:05:30.050Z,85.1
2022-10-16T12:06:30.015Z,85.3
2022-10-16T12:07:30.003Z,85
2022-10-16T12:08:30.121Z,84.23
2022-10-16T12:09:30.364Z,83.85
2022-10-16T12:10:30.384Z,84.14
2022-10-16T12:11:30.363Z,84.05
2022-10-16T12:12:34.527Z,83.95
2022-10-16T12:13:30.352Z,83.91
2022-10-16T12:14:30.099Z,84.1
2022-10-16T12:16:00.064Z,84.48
2022-10-16T12:16:30.090Z,83.91
2022-10-16T12:17:30.105Z,84.48
2022-10-16T12:18:30.109Z,85.83
2022-10-16T12:19:30.354Z,86.02
2022-10-16T12:20:30.082Z,85.98
2022-10-16T12:21:30.397Z,86.94
2022-10-16T12:22:30.578Z,86.85
2022-10-16T12:23:30.336Z,87.71
2022-10-16T12:24:30.070Z,87.52
2022-10-16T12:25:30.063Z,88.39
2022-10-16T12:26:30.059Z,89.06
2022-10-16T12:27:30.056Z,88.87
2022-10-16T12:28:30.245Z,88.57
2022-10-16T12:29:30.083Z,88.57
2022-10-16T12:30:35.751Z,87.66
2022-10-16T12:31:31.064Z,87.66
2022-10-16T12:32:48.441Z,86.12
2022-10-16T12:33:31.069Z,86.02
2022-10-16T12:34:30.799Z,85.83
2022-10-16T12:35:31.100Z,85.25
2022-10-16T12:36:31.057Z,85.93
2022-10-16T12:37:31.101Z,86.41
2022-10-16T12:38:31.038Z,86.02
2022-10-16T12:39:31.040Z,86.75
2022-10-16T12:40:30.779Z,86.94
2022-10-16T12:41:31.031Z,87.33
2022-10-16T12:42:31.638Z,86.85
2022-10-16T12:43:32.601Z,87.52
2022-10-16T12:44:30.763Z,87.81
2022-10-16T12:45:31.023Z,88.63
2022-10-16T12:46:30.757Z,88.82
2022-10-16T12:47:31.032Z,88.73
2022-10-16T12:49:30.749Z,90.26
2022-10-16T12:50:30.739Z,90.36
2022-10-16T12:51:31.013Z,90.75
2022-10-16T12:52:31.839Z,91.42
2022-10-16T12:53:31.046Z,92.52
2022-10-16T12:54:30.985Z,95.4
2022-10-16T12:55:30.724Z,96.17
2022-10-16T12:56:30.813Z,97.24
2022-10-16T12:57:32.418Z,99.54
2022-10-16T12:58:30.970Z,99.99
2022-10-16T12:59:30.706Z,99.99
2022-10-16T13:00:30.784Z,99.99
2022-10-16T13:01:30.961Z,99.99
2022-10-16T13:02:30.951Z,99.99
2022-10-16T13:03:30.694Z,99.99
2022-10-16T13:04:30.686Z,99.99
2022-10-16T13:05:30.827Z,99.99
2022-10-16T13:06:30.679Z,99.99
2022-10-16T13:07:31.285Z,99.99
2022-10-16T13:08:30.920Z,99.99
2022-10-16T13:09:31.004Z,99.99
2022-10-16T13:10:30.922Z,99.99
2022-10-16T13:11:30.913Z,99.99
2022-10-16T13:12:30.927Z,99.99
2022-10-16T13:13:30.919Z,99.99
2022-10-16T13:14:30.946Z,99.99
2022-10-16T13:15:31.165Z,99.99
2022-10-16T13:16:30.907Z,99.99